createdAt,value
2023-04-16T00:01:22.874Z,16.83
2023-04-16T00:03:50.986Z,15.82
2023-04-16T00:06:19.495Z,17.52
2023-04-16T00:08:47.771Z,14.88
2023-04-16T00:11:15.978Z,14.35
2023-04-16T00:13:44.160Z,14.35
2023-04-16T00:16:13.155Z,14.40
2023-04-16T00:18:43.377Z,15.10
2023-04-16T00:21:11.374Z,14.40
2023-04-16T00:23:39.629Z,14.27
2023-04-16T00:26:07.546Z,15.48
2023-04-16T00:28:35.449Z,15.63
2023-04-16T00:31:03.360Z,15.60
2023-04-16T00:33:31.286Z,13.60
2023-04-16T00:36:00.774Z,14.32
2023-04-16T00:38:30.467Z,15.65
2023-04-16T00:40:58.707Z,14.93
2023-04-16T00:43:27.693Z,13.88
2023-04-16T00:45:57.780Z,14.27
2023-04-16T00:48:28.042Z,15.68
2023-04-16T00:50:56.460Z,15.20
2023-04-16T00:53:25.755Z,15.48
2023-04-16T00:55:56.114Z,15.73
2023-04-16T00:58:25.035Z,15.85
2023-04-16T01:00:53.613Z,16.13
2023-04-16T01:03:21.534Z,16.13
2023-04-16T01:05:51.232Z,17.02
2023-04-16T01:08:20.220Z,16.10
2023-04-16T01:10:49.651Z,15.68
2023-04-16T01:13:17.706Z,17.10
2023-04-16T01:15:45.948Z,18.13
2023-04-16T01:18:17.525Z,21.30
2023-04-16T01:20:47.049Z,18.98
2023-04-16T01:23:15.522Z,18.92
2023-04-16T01:25:43.226Z,18.13
2023-04-16T01:28:11.047Z,20.75
2023-04-16T01:30:40.037Z,19.60
2023-04-16T01:33:18.044Z,21.55
2023-04-16T01:35:47.160Z,19.92
2023-04-16T01:38:17.157Z,19.20
2023-04-16T01:40:44.889Z,21.85
2023-04-16T01:43:13.216Z,22.30
2023-04-16T01:45:41.040Z,20.55
2023-04-16T01:48:10.248Z,22.25
2023-04-16T01:50:38.836Z,22.35
2023-04-16T01:53:09.670Z,23.10
2023-04-16T01:55:37.741Z,21.67
2023-04-16T01:58:07.416Z,20.17
2023-04-16T02:00:36.675Z,22.05
2023-04-16T02:03:04.958Z,21.05
2023-04-16T02:05:33.105Z,22.23
2023-04-16T02:08:01.381Z,22.92
2023-04-16T02:10:30.791Z,21.27
2023-04-16T02:12:59.328Z,21.73
2023-04-16T02:15:27.394Z,21.65
2023-04-16T02:17:57.373Z,22.00
2023-04-16T02:20:26.888Z,22.27
2023-04-16T02:23:00.699Z,23.88
2023-04-16T02:25:30.702Z,29.63
2023-04-16T02:28:00.226Z,24.45
2023-04-16T02:30:41.542Z,26.42
2023-04-16T02:33:12.110Z,22.27
2023-04-16T02:35:45.122Z,24.25
2023-04-16T02:38:13.871Z,23.65
2023-04-16T02:40:43.854Z,24.08
2023-04-16T02:43:12.151Z,23.48
2023-04-16T02:45:40.183Z,23.63
2023-04-16T02:48:09.696Z,22.85
2023-04-16T02:50:37.745Z,24.10
2023-04-16T02:53:06.608Z,25.15
2023-04-16T02:55:34.553Z,23.77
2023-04-16T02:58:04.743Z,26.08
2023-04-16T03:00:33.037Z,24.02
2023-04-16T03:03:01.880Z,23.95
2023-04-16T03:05:30.380Z,23.33
2023-04-16T03:07:58.173Z,25.40
2023-04-16T03:10:26.498Z,23.45
2023-04-16T03:12:54.229Z,22.80
2023-04-16T03:15:23.458Z,25.02
2023-04-16T03:17:51.363Z,22.95
2023-04-16T03:20:19.152Z,23.33
2023-04-16T03:22:47.048Z,23.33
2023-04-16T03:25:14.984Z,24.52
2023-04-16T03:27:42.789Z,21.83
2023-04-16T03:30:13.728Z,25.27
2023-04-16T03:32:43.461Z,23.83
2023-04-16T03:35:12.791Z,23.05
2023-04-16T03:37:40.857Z,24.27
2023-04-16T03:40:10.036Z,27.65
2023-04-16T03:42:38.580Z,22.98
2023-04-16T03:45:09.397Z,27.25
2023-04-16T03:47:38.880Z,23.90
2023-04-16T03:50:09.052Z,25.38
2023-04-16T03:52:37.512Z,26.33
2023-04-16T03:55:06.031Z,24.27
2023-04-16T03:58:09.086Z,22.23
2023-04-16T04:00:36.861Z,21.35
2023-04-16T04:03:12.651Z,24.38
2023-04-16T04:05:43.020Z,22.15
2023-04-16T04:08:12.575Z,22.30
2023-04-16T04:10:40.289Z,20.58
2023-04-16T04:13:09.727Z,19.70
2023-04-16T04:15:37.888Z,19.77
2023-04-16T04:18:06.518Z,17.70
2023-04-16T04:20:34.780Z,18.83
2023-04-16T04:23:05.049Z,17.40
2023-04-16T04:25:32.986Z,17.50
2023-04-16T04:28:01.279Z,17.85
2023-04-16T04:30:29.976Z,17.27
2023-04-16T04:32:58.288Z,17.20
2023-04-16T04:35:26.236Z,16.27
2023-04-16T04:37:54.511Z,16.60
2023-04-16T04:40:24.320Z,16.15
2023-04-16T04:42:53.573Z,15.45
2023-04-16T04:45:25.613Z,17.00
2023-04-16T04:47:54.899Z,18.98
2023-04-16T04:50:23.421Z,15.85
2023-04-16T04:52:51.252Z,15.90
2023-04-16T04:55:19.294Z,15.05
2023-04-16T04:57:48.594Z,13.20
2023-04-16T05:00:16.558Z,14.98
2023-04-16T05:02:52.063Z,15.18
2023-04-16T05:05:20.515Z,14.65
2023-04-16T05:07:48.503Z,14.30
2023-04-16T05:10:16.318Z,31.15
2023-04-16T05:12:44.003Z,15.50
2023-04-16T05:15:13.673Z,13.88
2023-04-16T05:17:41.570Z,17.10
2023-04-16T05:20:10.622Z,15.90
2023-04-16T05:22:39.126Z,15.60
2023-04-16T05:25:07.533Z,16.13
2023-04-16T05:27:35.348Z,16.05
2023-04-16T05:30:03.081Z,16.73
2023-04-16T05:32:32.368Z,18.65
2023-04-16T05:35:00.296Z,16.77
2023-04-16T05:37:28.004Z,17.48
2023-04-16T05:39:55.750Z,19.92
2023-04-16T05:42:24.003Z,17.35
2023-04-16T05:44:52.308Z,18.48
2023-04-16T05:47:20.043Z,17.58
2023-04-16T05:49:49.082Z,20.80
2023-04-16T05:52:17.000Z,18.67
2023-04-16T05:54:44.747Z,17.48
2023-04-16T05:57:12.725Z,18.08
2023-04-16T05:59:40.664Z,21.23
2023-04-16T06:02:08.541Z,18.52
2023-04-16T06:04:37.512Z,18.88
2023-04-16T06:07:06.974Z,19.67
2023-04-16T06:09:35.211Z,18.60
2023-04-16T06:12:03.317Z,19.15
2023-04-16T06:14:31.073Z,20.73
2023-04-16T06:16:58.768Z,22.67
2023-04-16T06:19:26.562Z,19.95
2023-04-16T06:21:54.615Z,22.23
2023-04-16T06:24:23.930Z,19.63
2023-04-16T06:26:51.859Z,21.67
2023-04-16T06:29:21.323Z,21.13
2023-04-16T06:31:50.356Z,21.35
2023-04-16T06:34:19.417Z,22.30
2023-04-16T06:36:47.455Z,24.40
2023-04-16T06:39:15.208Z,19.92
2023-04-16T06:41:44.488Z,24.30
2023-04-16T06:44:13.438Z,23.63
2023-04-16T06:46:41.589Z,22.30
2023-04-16T06:49:09.475Z,22.73
2023-04-16T06:51:37.421Z,20.90
2023-04-16T06:54:05.479Z,23.83
2023-04-16T06:56:33.267Z,23.55
2023-04-16T06:59:02.485Z,25.55
2023-04-16T07:01:31.933Z,23.02
2023-04-16T07:03:59.907Z,22.98
2023-04-16T07:06:28.054Z,21.85
2023-04-16T07:08:56.044Z,22.52
2023-04-16T07:11:26.096Z,23.67
2023-04-16T07:13:54.180Z,19.55
2023-04-16T07:16:23.625Z,20.73
2023-04-16T07:18:51.543Z,20.05
2023-04-16T07:21:19.916Z,19.60
2023-04-16T07:23:48.028Z,21.77
2023-04-16T07:26:16.040Z,19.55
2023-04-16T07:28:43.670Z,20.13
2023-04-16T07:31:11.698Z,20.45
2023-04-16T07:33:41.661Z,20.42
2023-04-16T07:36:09.371Z,18.60
2023-04-16T07:38:37.356Z,21.23
2023-04-16T07:41:05.275Z,21.55
2023-04-16T07:43:33.303Z,17.55
2023-04-16T07:46:01.384Z,17.83
2023-04-16T07:48:29.638Z,19.92
2023-04-16T07:50:59.064Z,17.60
2023-04-16T07:53:28.552Z,20.02
2023-04-16T07:55:56.492Z,17.80
2023-04-16T07:58:25.477Z,18.33
2023-04-16T08:00:53.477Z,17.92
2023-04-16T08:03:21.630Z,17.73
2023-04-16T08:05:49.655Z,15.15
2023-04-16T08:08:18.829Z,14.40
2023-04-16T08:10:46.968Z,17.20
2023-04-16T08:13:14.656Z,16.67
2023-04-16T08:15:42.323Z,15.68
2023-04-16T08:18:12.870Z,14.57
2023-04-16T08:20:40.786Z,18.27
2023-04-16T08:23:09.254Z,14.48
2023-04-16T08:25:38.372Z,15.43
2023-04-16T08:28:06.716Z,16.00
2023-04-16T08:30:35.090Z,16.38
2023-04-16T08:33:03.015Z,15.55
2023-04-16T08:35:31.053Z,19.60
2023-04-16T08:38:02.131Z,16.00
2023-04-16T08:40:30.988Z,15.27
2023-04-16T08:43:01.195Z,16.73
2023-04-16T08:45:30.989Z,16.02
2023-04-16T08:47:59.351Z,16.23
2023-04-16T08:50:30.505Z,16.23
2023-04-16T08:53:00.710Z,16.27
2023-04-16T08:55:36.401Z,16.73
2023-04-16T08:58:10.531Z,18.83
2023-04-16T09:00:41.190Z,19.98
2023-04-16T09:03:10.276Z,18.80
2023-04-16T09:05:39.040Z,17.70
2023-04-16T09:08:07.736Z,20.15
2023-04-16T09:10:36.409Z,19.77
2023-04-16T09:13:06.125Z,18.20
2023-04-16T09:15:36.619Z,20.15
2023-04-16T09:18:04.636Z,20.75
2023-04-16T09:20:33.305Z,22.15
2023-04-16T09:23:01.315Z,16.90
2023-04-16T09:25:30.365Z,18.33
2023-04-16T09:27:58.799Z,18.42
2023-04-16T09:30:28.877Z,20.00
2023-04-16T09:33:16.521Z,21.30
2023-04-16T09:35:48.678Z,19.35
2023-04-16T09:38:17.349Z,25.20
2023-04-16T09:40:47.385Z,23.80
2023-04-16T09:43:16.929Z,21.58
2023-04-16T09:45:56.515Z,19.67
2023-04-16T09:48:31.467Z,22.50
2023-04-16T09:51:00.515Z,19.98
2023-04-16T09:53:30.675Z,23.80
2023-04-16T09:55:59.201Z,21.40
2023-04-16T09:58:27.536Z,23.27
2023-04-16T10:01:02.418Z,22.58
2023-04-16T10:03:31.781Z,23.17
2023-04-16T10:06:02.284Z,24.15
2023-04-16T10:08:30.658Z,25.25
2023-04-16T10:10:59.214Z,23.15
2023-04-16T10:13:31.552Z,22.50
2023-04-16T10:16:01.653Z,22.80
2023-04-16T10:18:30.592Z,24.30
2023-04-16T10:20:58.826Z,24.83
2023-04-16T10:23:28.277Z,23.42
2023-04-16T10:26:01.117Z,28.67
2023-04-16T10:28:29.529Z,25.60
2023-04-16T10:30:59.432Z,26.30
2023-04-16T10:33:30.776Z,26.35
2023-04-16T10:36:12.085Z,27.75
2023-04-16T10:38:41.375Z,29.40
2023-04-16T10:41:10.011Z,24.98
2023-04-16T10:43:42.586Z,24.75
2023-04-16T10:46:21.745Z,24.20
2023-04-16T10:48:54.702Z,26.08
2023-04-16T10:51:31.607Z,26.08
2023-04-16T10:54:04.972Z,24.58
2023-04-16T10:56:35.118Z,25.88
2023-04-16T10:59:06.149Z,24.15
2023-04-16T11:01:39.667Z,27.45
2023-04-16T11:04:31.220Z,27.73
2023-04-16T11:07:04.291Z,25.83
2023-04-16T11:09:53.549Z,26.45
2023-04-16T11:12:23.116Z,26.33
2023-04-16T11:14:52.429Z,24.95
2023-04-16T11:17:21.062Z,24.35
2023-04-16T11:19:59.137Z,26.30
2023-04-16T11:22:28.620Z,24.83
2023-04-16T11:24:57.295Z,23.02
2023-04-16T11:27:25.577Z,24.95
2023-04-16T11:30:01.921Z,26.38
2023-04-16T11:32:32.423Z,27.58
2023-04-16T11:35:04.354Z,27.33
2023-04-16T11:37:36.163Z,25.15
2023-04-16T11:40:10.789Z,24.92
2023-04-16T11:42:41.977Z,23.85
2023-04-16T11:45:12.089Z,24.42
2023-04-16T11:47:47.811Z,24.95
2023-04-16T11:50:22.464Z,25.92
2023-04-16T11:52:51.871Z,24.08
2023-04-16T11:55:20.617Z,22.95
2023-04-16T11:57:49.175Z,24.65
2023-04-16T12:00:21.783Z,23.75
2023-04-16T12:02:55.885Z,25.23
2023-04-16T12:05:31.006Z,23.30
2023-04-16T12:07:59.823Z,22.38
2023-04-16T12:10:28.553Z,24.38
2023-04-16T12:13:10.346Z,25.33
2023-04-16T12:15:47.479Z,25.23
2023-04-16T12:18:16.262Z,23.05
2023-04-16T12:20:46.934Z,22.73
2023-04-16T12:23:25.444Z,22.25
2023-04-16T12:25:53.931Z,23.67
2023-04-16T12:28:30.091Z,22.83
2023-04-16T12:30:59.339Z,20.58
2023-04-16T12:33:28.318Z,21.40
2023-04-16T12:35:58.545Z,23.95
2023-04-16T12:38:27.110Z,24.73
2023-04-16T12:40:57.512Z,24.88
2023-04-16T12:43:26.000Z,24.27
2023-04-16T12:45:53.993Z,24.83
2023-04-16T12:48:21.884Z,24.73
2023-04-16T12:50:50.510Z,24.48
2023-04-16T12:53:20.538Z,25.15
2023-04-16T12:55:49.530Z,21.88
2023-04-16T12:58:17.943Z,23.70
2023-04-16T13:00:52.413Z,26.00
2023-04-16T13:03:22.277Z,25.08
2023-04-16T13:05:51.929Z,28.70
2023-04-16T13:08:21.752Z,28.05
2023-04-16T13:10:54.779Z,26.02
2023-04-16T13:13:23.131Z,26.85
2023-04-16T13:15:54.424Z,26.08
2023-04-16T13:18:23.107Z,27.38
2023-04-16T13:20:52.736Z,26.90
2023-04-16T13:23:23.203Z,27.70
2023-04-16T13:25:52.314Z,27.90
2023-04-16T13:28:20.149Z,29.00
2023-04-16T13:30:48.854Z,25.30
2023-04-16T13:33:17.607Z,27.05
2023-04-16T13:35:46.400Z,27.85
2023-04-16T13:38:14.259Z,23.40
2023-04-16T13:40:52.587Z,28.60
2023-04-16T13:43:23.900Z,26.15
2023-04-16T13:45:54.285Z,28.35
2023-04-16T13:48:22.548Z,29.38
2023-04-16T13:50:50.640Z,28.33
2023-04-16T13:53:18.859Z,30.30
2023-04-16T13:55:49.662Z,25.40
2023-04-16T13:58:17.878Z,24.48
2023-04-16T14:00:48.939Z,26.85
2023-04-16T14:03:17.457Z,28.10
2023-04-16T14:05:45.525Z,27.63
2023-04-16T14:08:14.933Z,27.00
2023-04-16T14:10:42.969Z,28.83
2023-04-16T14:13:13.374Z,29.23
2023-04-16T14:15:41.850Z,29.90
2023-04-16T14:18:10.260Z,35.10
2023-04-16T14:20:41.084Z,28.40
2023-04-16T14:23:09.176Z,28.48
2023-04-16T14:25:38.736Z,31.42
2023-04-16T14:28:08.962Z,33.78
2023-04-16T14:30:38.399Z,33.05
2023-04-16T14:33:07.495Z,33.05
2023-04-16T14:35:36.131Z,30.92
2023-04-16T14:38:04.208Z,29.33
2023-04-16T14:40:33.352Z,31.67
2023-04-16T14:43:02.183Z,31.17
2023-04-16T14:45:32.297Z,32.47
2023-04-16T14:48:01.632Z,33.25
2023-04-16T14:50:29.781Z,32.47
2023-04-16T14:52:58.583Z,29.70
2023-04-16T14:55:27.447Z,27.70
2023-04-16T14:57:56.573Z,31.08
2023-04-16T15:00:26.382Z,28.33
2023-04-16T15:02:55.095Z,26.52
2023-04-16T15:05:24.608Z,26.35
2023-04-16T15:07:53.005Z,29.20
2023-04-16T15:10:26.491Z,24.63
2023-04-16T15:12:56.893Z,23.60
2023-04-16T15:15:24.910Z,21.60
2023-04-16T15:17:53.093Z,26.65
2023-04-16T15:20:21.006Z,23.75
2023-04-16T15:22:50.947Z,23.10
2023-04-16T15:25:18.980Z,21.98
2023-04-16T15:27:47.158Z,21.58
2023-04-16T15:30:31.819Z,21.88
2023-04-16T15:33:01.534Z,21.77
2023-04-16T15:35:30.397Z,23.85
2023-04-16T15:37:59.810Z,20.75
2023-04-16T15:40:31.494Z,24.05
2023-04-16T15:42:59.734Z,23.58
2023-04-16T15:45:28.227Z,23.85
2023-04-16T15:47:56.603Z,22.25
2023-04-16T15:50:31.338Z,25.65
2023-04-16T15:53:01.782Z,25.00
2023-04-16T15:55:31.970Z,24.95
2023-04-16T15:58:00.265Z,27.33
2023-04-16T16:00:29.129Z,24.50
2023-04-16T16:02:57.389Z,30.55
2023-04-16T16:05:25.712Z,28.02
2023-04-16T16:07:54.137Z,27.48
2023-04-16T16:10:33.187Z,27.13
2023-04-16T16:13:06.117Z,25.85
2023-04-16T16:15:34.154Z,26.58
2023-04-16T16:18:02.237Z,25.77
2023-04-16T16:20:30.728Z,24.20
2023-04-16T16:22:58.936Z,27.40
2023-04-16T16:25:29.085Z,25.98
2023-04-16T16:27:56.996Z,28.88
2023-04-16T16:30:33.037Z,26.92
2023-04-16T16:33:03.094Z,25.67
2023-04-16T16:35:31.295Z,27.25
2023-04-16T16:37:59.407Z,30.25
2023-04-16T16:40:29.514Z,25.98
2023-04-16T16:42:57.801Z,24.50
2023-04-16T16:45:27.179Z,24.90
2023-04-16T16:47:55.463Z,22.92
2023-04-16T16:50:24.567Z,26.00
2023-04-16T16:52:52.440Z,24.60
2023-04-16T16:55:20.928Z,26.98
2023-04-16T16:57:50.348Z,30.52
2023-04-16T17:00:21.378Z,27.20
2023-04-16T17:02:51.130Z,25.08
2023-04-16T17:05:19.819Z,25.55
2023-04-16T17:07:48.646Z,27.38
2023-04-16T17:10:20.269Z,23.55
2023-04-16T17:12:48.336Z,26.33
2023-04-16T17:15:20.591Z,25.67
2023-04-16T17:17:49.559Z,24.42
2023-04-16T17:20:18.039Z,25.30
2023-04-16T17:22:46.757Z,24.70
2023-04-16T17:25:15.119Z,27.05
2023-04-16T17:27:43.468Z,27.90
2023-04-16T17:30:13.223Z,27.15
2023-04-16T17:32:42.772Z,25.15
2023-04-16T17:35:11.350Z,24.90
2023-04-16T17:37:39.464Z,24.52
2023-04-16T17:40:10.109Z,23.75
2023-04-16T17:42:38.794Z,23.35
2023-04-16T17:45:10.869Z,25.13
2023-04-16T17:47:39.772Z,24.33
2023-04-16T17:50:10.515Z,24.58
2023-04-16T17:52:40.438Z,23.98
2023-04-16T17:55:09.404Z,24.98
2023-04-16T17:57:37.389Z,24.25
2023-04-16T18:00:10.854Z,25.45
2023-04-16T18:02:41.964Z,25.10
2023-04-16T18:05:12.117Z,23.90
2023-04-16T18:07:40.312Z,23.90
2023-04-16T18:10:09.985Z,24.90
2023-04-16T18:12:38.197Z,27.08
2023-04-16T18:15:07.051Z,25.73
2023-04-16T18:17:35.277Z,25.65
2023-04-16T18:20:05.575Z,25.20
2023-04-16T18:22:35.118Z,24.58
2023-04-16T18:25:03.545Z,27.88
2023-04-16T18:27:34.376Z,24.30
2023-04-16T18:30:04.343Z,29.73
2023-04-16T18:32:33.264Z,29.13
2023-04-16T18:35:02.093Z,33.17
2023-04-16T18:37:30.423Z,30.45
2023-04-16T18:39:59.666Z,28.50
2023-04-16T18:42:29.375Z,26.27
2023-04-16T18:44:57.300Z,25.90
2023-04-16T18:47:26.517Z,26.40
2023-04-16T18:49:54.948Z,31.70
2023-04-16T18:52:22.948Z,30.30
2023-04-16T18:54:51.466Z,29.60
2023-04-16T18:57:21.030Z,29.55
2023-04-16T18:59:48.816Z,30.10
2023-04-16T19:02:17.123Z,30.45
2023-04-16T19:04:45.171Z,30.52
2023-04-16T19:07:13.547Z,30.42
2023-04-16T19:09:41.816Z,31.20
2023-04-16T19:12:10.414Z,30.05
2023-04-16T19:14:39.893Z,26.35
2023-04-16T19:17:07.702Z,27.42
2023-04-16T19:19:37.819Z,28.42
2023-04-16T19:22:08.432Z,26.65
2023-04-16T19:24:36.514Z,28.42
2023-04-16T19:27:04.523Z,26.10
2023-04-16T19:29:34.212Z,25.40
2023-04-16T19:32:03.952Z,26.85
2023-04-16T19:34:32.944Z,26.23
2023-04-16T19:37:01.817Z,27.77
2023-04-16T19:39:30.274Z,25.95
2023-04-16T19:42:01.748Z,23.55
2023-04-16T19:44:30.825Z,24.48
2023-04-16T19:46:59.080Z,27.55
2023-04-16T19:49:34.763Z,26.88
2023-04-16T19:52:02.890Z,27.48
2023-04-16T19:54:33.780Z,27.40
2023-04-16T19:57:01.721Z,27.35
2023-04-16T19:59:29.802Z,25.73
2023-04-16T20:01:58.168Z,26.25
2023-04-16T20:04:26.559Z,26.10
2023-04-16T20:06:57.986Z,25.75
2023-04-16T20:09:26.387Z,24.88
2023-04-16T20:11:54.384Z,25.13
2023-04-16T20:14:22.465Z,25.33
2023-04-16T20:16:50.747Z,28.60
2023-04-16T20:19:19.562Z,25.33
2023-04-16T20:21:48.199Z,28.85
2023-04-16T20:24:17.811Z,24.00
2023-04-16T20:26:45.933Z,24.40
2023-04-16T20:29:14.786Z,23.77
2023-04-16T20:31:44.557Z,23.60
2023-04-16T20:34:12.909Z,26.85
2023-04-16T20:36:42.024Z,24.83
2023-04-16T20:39:10.988Z,22.73
2023-04-16T20:41:44.386Z,24.30
2023-04-16T20:44:18.382Z,23.15
2023-04-16T20:46:50.125Z,24.73
2023-04-16T20:49:19.052Z,23.88
2023-04-16T20:51:47.461Z,24.52
2023-04-16T20:54:18.339Z,25.83
2023-04-16T20:56:47.691Z,24.05
2023-04-16T20:59:15.681Z,25.17
2023-04-16T21:01:44.045Z,23.17
2023-04-16T21:04:13.702Z,23.25
2023-04-16T21:06:43.179Z,25.92
2023-04-16T21:09:11.768Z,25.92
2023-04-16T21:11:40.214Z,26.65
2023-04-16T21:14:09.510Z,24.98
2023-04-16T21:16:37.432Z,28.50
2023-04-16T21:19:06.916Z,25.60
2023-04-16T21:21:35.776Z,25.42
2023-04-16T21:24:03.867Z,24.85
2023-04-16T21:26:33.934Z,27.95
2023-04-16T21:29:02.265Z,25.17
2023-04-16T21:31:32.368Z,25.35
2023-04-16T21:34:00.602Z,27.17
2023-04-16T21:36:29.228Z,25.23
2023-04-16T21:38:57.483Z,25.20
2023-04-16T21:41:25.654Z,25.40
2023-04-16T21:43:53.542Z,28.85
2023-04-16T21:46:21.608Z,25.98
2023-04-16T21:48:51.442Z,24.67
2023-04-16T21:51:20.188Z,26.92
2023-04-16T21:53:47.883Z,27.33
2023-04-16T21:56:15.889Z,26.83
2023-04-16T21:58:43.612Z,26.90
2023-04-16T22:01:11.374Z,28.92
2023-04-16T22:03:40.887Z,26.80
2023-04-16T22:06:10.172Z,32.08
2023-04-16T22:08:37.963Z,29.25
2023-04-16T22:11:05.858Z,28.75
2023-04-16T22:13:33.981Z,30.20
2023-04-16T22:16:02.314Z,29.27
2023-04-16T22:18:33.828Z,30.50
2023-04-16T22:21:02.865Z,29.80
2023-04-16T22:23:31.871Z,30.08
2023-04-16T22:25:59.641Z,30.42
2023-04-16T22:28:27.664Z,28.67
2023-04-16T22:30:55.388Z,30.48
2023-04-16T22:33:23.753Z,27.35
2023-04-16T22:35:51.650Z,30.85
2023-04-16T22:38:19.640Z,32.28
2023-04-16T22:40:49.713Z,31.42
2023-04-16T22:43:17.995Z,31.02
2023-04-16T22:45:47.217Z,30.55
2023-04-16T22:48:15.480Z,28.13
2023-04-16T22:50:48.295Z,33.17
2023-04-16T22:53:16.264Z,30.65
2023-04-16T22:55:44.540Z,31.70
2023-04-16T22:58:13.923Z,31.30
2023-04-16T23:00:41.857Z,30.77
2023-04-16T23:03:10.027Z,34.03
2023-04-16T23:05:38.691Z,30.75
2023-04-16T23:08:07.098Z,29.55
2023-04-16T23:10:35.090Z,33.08
2023-04-16T23:13:16.956Z,30.83
2023-04-16T23:15:47.323Z,33.30
2023-04-16T23:18:15.443Z,32.08
2023-04-16T23:20:43.156Z,30.85
2023-04-16T23:23:11.122Z,31.52
2023-04-16T23:25:39.144Z,30.25
2023-04-16T23:28:06.780Z,34.58
2023-04-16T23:30:35.257Z,31.35
2023-04-16T23:33:04.343Z,31.58
2023-04-16T23:35:32.244Z,28.25
2023-04-16T23:38:00.426Z,31.33
2023-04-16T23:40:28.352Z,26.67
2023-04-16T23:42:56.054Z,29.92
2023-04-16T23:45:23.822Z,29.05
2023-04-16T23:47:51.874Z,30.30
2023-04-16T23:50:21.184Z,30.00
2023-04-16T23:52:49.277Z,27.30
2023-04-16T23:55:17.089Z,30.88
2023-04-16T23:57:45.516Z,29.13
